sensor_id;sensor_type;location;lat;lon;timestamp;temperature;humidity
22130;DHT22;11231;50.746;4.272;2023-04-28T00:02:19;12.80;99.90
22130;DHT22;11231;50.746;4.272;2023-04-28T00:04:44;12.40;99.90
22130;DHT22;11231;50.746;4.272;2023-04-28T00:07:10;12.10;99.90
22130;DHT22;11231;50.746;4.272;2023-04-28T00:09:36;11.80;99.90
22130;DHT22;11231;50.746;4.272;2023-04-28T00:12:01;11.60;99.90
22130;DHT22;11231;50.746;4.272;2023-04-28T00:14:27;11.60;99.90
22130;DHT22;11231;50.746;4.272;2023-04-28T00:16:53;11.50;99.90
22130;DHT22;11231;50.746;4.272;2023-04-28T00:19:21;11.30;99.90
22130;DHT22;11231;50.746;4.272;2023-04-28T00:21:47;11.20;99.90
22130;DHT22;11231;50.746;4.272;2023-04-28T00:24:12;11.20;99.90
22130;DHT22;11231;50.746;4.272;2023-04-28T00:26:38;11.10;99.90
22130;DHT22;11231;50.746;4.272;2023-04-28T00:29:04;11.20;99.90
22130;DHT22;11231;50.746;4.272;2023-04-28T00:31:30;11.30;99.90
22130;DHT22;11231;50.746;4.272;2023-04-28T00:33:55;11.40;99.90
22130;DHT22;11231;50.746;4.272;2023-04-28T00:36:22;11.30;99.90
22130;DHT22;11231;50.746;4.272;2023-04-28T00:38:48;11.50;99.90
22130;DHT22;11231;50.746;4.272;2023-04-28T00:41:14;11.50;99.90
22130;DHT22;11231;50.746;4.272;2023-04-28T00:43:44;11.60;99.90
22130;DHT22;11231;50.746;4.272;2023-04-28T00:48:55;11.60;99.90
22130;DHT22;11231;50.746;4.272;2023-04-28T00:51:21;11.70;99.90
22130;DHT22;11231;50.746;4.272;2023-04-28T00:53:47;11.90;99.90
22130;DHT22;11231;50.746;4.272;2023-04-28T00:56:13;12.00;99.90
22130;DHT22;11231;50.746;4.272;2023-04-28T00:58:40;12.10;99.90
22130;DHT22;11231;50.746;4.272;2023-04-28T01:01:08;12.30;99.90
22130;DHT22;11231;50.746;4.272;2023-04-28T01:03:36;12.40;99.90
22130;DHT22;11231;50.746;4.272;2023-04-28T01:06:07;12.60;99.90
22130;DHT22;11231;50.746;4.272;2023-04-28T01:08:35;12.70;99.90
22130;DHT22;11231;50.746;4.272;2023-04-28T01:11:04;12.70;99.90
22130;DHT22;11231;50.746;4.272;2023-04-28T01:13:54;12.80;99.90
22130;DHT22;11231;50.746;4.272;2023-04-28T01:16:23;12.90;99.90
22130;DHT22;11231;50.746;4.272;2023-04-28T01:18:50;12.90;99.90
22130;DHT22;11231;50.746;4.272;2023-04-28T01:21:27;12.90;99.90
22130;DHT22;11231;50.746;4.272;2023-04-28T01:23:56;13.00;99.90
22130;DHT22;11231;50.746;4.272;2023-04-28T01:26:22;13.00;99.90
22130;DHT22;11231;50.746;4.272;2023-04-28T01:28:48;12.80;99.90
22130;DHT22;11231;50.746;4.272;2023-04-28T01:31:14;12.80;99.90
22130;DHT22;11231;50.746;4.272;2023-04-28T01:33:39;12.90;99.90
22130;DHT22;11231;50.746;4.272;2023-04-28T01:36:05;13.00;99.90
22130;DHT22;11231;50.746;4.272;2023-04-28T01:38:31;13.00;99.90
22130;DHT22;11231;50.746;4.272;2023-04-28T01:40:58;12.80;99.90
22130;DHT22;11231;50.746;4.272;2023-04-28T01:43:24;12.90;99.90
22130;DHT22;11231;50.746;4.272;2023-04-28T01:45:51;12.90;99.90
22130;DHT22;11231;50.746;4.272;2023-04-28T01:48:16;13.00;99.90
22130;DHT22;11231;50.746;4.272;2023-04-28T01:50:45;13.00;99.90
22130;DHT22;11231;50.746;4.272;2023-04-28T01:53:11;13.00;99.90
22130;DHT22;11231;50.746;4.272;2023-04-28T01:55:37;13.00;99.90
22130;DHT22;11231;50.746;4.272;2023-04-28T01:58:04;13.00;99.90
22130;DHT22;11231;50.746;4.272;2023-04-28T02:00:30;13.00;99.90
22130;DHT22;11231;50.746;4.272;2023-04-28T02:02:56;12.90;99.90
22130;DHT22;11231;50.746;4.272;2023-04-28T02:05:22;13.00;99.90
22130;DHT22;11231;50.746;4.272;2023-04-28T02:07:49;13.00;99.90
22130;DHT22;11231;50.746;4.272;2023-04-28T02:10:15;13.00;99.90
22130;DHT22;11231;50.746;4.272;2023-04-28T02:12:41;12.90;99.90
22130;DHT22;11231;50.746;4.272;2023-04-28T02:15:07;12.30;99.90
22130;DHT22;11231;50.746;4.272;2023-04-28T02:17:33;12.20;99.90
22130;DHT22;11231;50.746;4.272;2023-04-28T02:19:59;12.00;99.90
22130;DHT22;11231;50.746;4.272;2023-04-28T02:22:25;11.80;99.90
22130;DHT22;11231;50.746;4.272;2023-04-28T02:24:51;11.60;99.90
22130;DHT22;11231;50.746;4.272;2023-04-28T02:27:17;11.40;99.90
22130;DHT22;11231;50.746;4.272;2023-04-28T02:29:43;11.30;99.90
22130;DHT22;11231;50.746;4.272;2023-04-28T02:32:09;11.10;99.90
22130;DHT22;11231;50.746;4.272;2023-04-28T02:34:35;11.00;99.90
22130;DHT22;11231;50.746;4.272;2023-04-28T02:37:01;10.90;99.90
22130;DHT22;11231;50.746;4.272;2023-04-28T02:39:27;11.00;99.90
22130;DHT22;11231;50.746;4.272;2023-04-28T02:41:55;11.00;99.90
22130;DHT22;11231;50.746;4.272;2023-04-28T02:44:22;11.00;99.90
22130;DHT22;11231;50.746;4.272;2023-04-28T02:46:48;11.10;99.90
22130;DHT22;11231;50.746;4.272;2023-04-28T02:49:14;11.20;99.90
22130;DHT22;11231;50.746;4.272;2023-04-28T02:51:44;11.20;99.90
22130;DHT22;11231;50.746;4.272;2023-04-28T02:54:10;11.30;99.90
22130;DHT22;11231;50.746;4.272;2023-04-28T02:56:38;11.30;99.90
22130;DHT22;11231;50.746;4.272;2023-04-28T02:59:06;11.40;99.90
22130;DHT22;11231;50.746;4.272;2023-04-28T03:01:32;11.50;99.90
22130;DHT22;11231;50.746;4.272;2023-04-28T03:03:58;11.60;99.90
22130;DHT22;11231;50.746;4.272;2023-04-28T03:06:24;11.70;99.90
22130;DHT22;11231;50.746;4.272;2023-04-28T03:08:51;11.90;99.90
22130;DHT22;11231;50.746;4.272;2023-04-28T03:11:17;12.00;99.90
22130;DHT22;11231;50.746;4.272;2023-04-28T03:13:42;12.30;99.90
22130;DHT22;11231;50.746;4.272;2023-04-28T03:16:09;12.40;99.90
22130;DHT22;11231;50.746;4.272;2023-04-28T03:18:34;12.50;99.90
22130;DHT22;11231;50.746;4.272;2023-04-28T03:21:00;12.60;99.90
22130;DHT22;11231;50.746;4.272;2023-04-28T03:23:27;12.60;99.90
22130;DHT22;11231;50.746;4.272;2023-04-28T03:25:53;12.70;99.90
22130;DHT22;11231;50.746;4.272;2023-04-28T03:28:20;12.80;99.90
22130;DHT22;11231;50.746;4.272;2023-04-28T03:30:45;12.80;99.90
22130;DHT22;11231;50.746;4.272;2023-04-28T03:33:11;12.90;99.90
22130;DHT22;11231;50.746;4.272;2023-04-28T03:35:37;13.10;99.90
22130;DHT22;11231;50.746;4.272;2023-04-28T03:38:03;13.20;99.90
22130;DHT22;11231;50.746;4.272;2023-04-28T03:40:29;13.20;99.90
22130;DHT22;11231;50.746;4.272;2023-04-28T03:43:21;13.30;99.90
22130;DHT22;11231;50.746;4.272;2023-04-28T03:46:03;13.20;99.90
22130;DHT22;11231;50.746;4.272;2023-04-28T03:48:29;13.10;99.90
22130;DHT22;11231;50.746;4.272;2023-04-28T03:50:55;13.20;99.90
22130;DHT22;11231;50.746;4.272;2023-04-28T03:53:22;13.30;99.90
22130;DHT22;11231;50.746;4.272;2023-04-28T03:55:48;13.40;99.90
22130;DHT22;11231;50.746;4.272;2023-04-28T03:58:13;13.50;99.90
22130;DHT22;11231;50.746;4.272;2023-04-28T04:00:39;13.60;99.90
22130;DHT22;11231;50.746;4.272;2023-04-28T04:03:05;13.60;99.90
22130;DHT22;11231;50.746;4.272;2023-04-28T04:05:31;13.70;99.90
22130;DHT22;11231;50.746;4.272;2023-04-28T04:07:57;13.80;99.90
22130;DHT22;11231;50.746;4.272;2023-04-28T04:10:23;13.90;99.90
22130;DHT22;11231;50.746;4.272;2023-04-28T04:12:49;13.90;99.90
22130;DHT22;11231;50.746;4.272;2023-04-28T04:15:15;13.90;99.90
22130;DHT22;11231;50.746;4.272;2023-04-28T04:17:44;13.90;99.90
22130;DHT22;11231;50.746;4.272;2023-04-28T04:20:10;13.90;99.90
22130;DHT22;11231;50.746;4.272;2023-04-28T04:22:36;13.90;99.90
22130;DHT22;11231;50.746;4.272;2023-04-28T04:25:02;13.90;99.90
22130;DHT22;11231;50.746;4.272;2023-04-28T04:27:28;13.90;99.90
22130;DHT22;11231;50.746;4.272;2023-04-28T04:29:54;13.90;99.90
22130;DHT22;11231;50.746;4.272;2023-04-28T04:32:20;13.90;99.90
22130;DHT22;11231;50.746;4.272;2023-04-28T04:34:46;13.90;99.90
22130;DHT22;11231;50.746;4.272;2023-04-28T04:37:12;13.90;99.90
22130;DHT22;11231;50.746;4.272;2023-04-28T04:39:49;13.90;99.90
22130;DHT22;11231;50.746;4.272;2023-04-28T04:42:15;14.00;99.90
22130;DHT22;11231;50.746;4.272;2023-04-28T04:44:45;14.10;99.90
22130;DHT22;11231;50.746;4.272;2023-04-28T04:47:24;14.20;99.90
22130;DHT22;11231;50.746;4.272;2023-04-28T04:49:51;14.30;99.90
22130;DHT22;11231;50.746;4.272;2023-04-28T04:52:17;14.30;99.90
22130;DHT22;11231;50.746;4.272;2023-04-28T04:54:44;14.30;99.90
22130;DHT22;11231;50.746;4.272;2023-04-28T04:57:11;14.40;99.90
22130;DHT22;11231;50.746;4.272;2023-04-28T04:59:56;14.40;99.90
22130;DHT22;11231;50.746;4.272;2023-04-28T05:02:22;14.50;99.90
22130;DHT22;11231;50.746;4.272;2023-04-28T05:04:47;14.60;99.90
22130;DHT22;11231;50.746;4.272;2023-04-28T05:07:14;14.50;99.90
22130;DHT22;11231;50.746;4.272;2023-04-28T05:09:41;14.50;99.90
22130;DHT22;11231;50.746;4.272;2023-04-28T05:12:06;14.60;99.90
22130;DHT22;11231;50.746;4.272;2023-04-28T05:14:32;14.70;99.90
22130;DHT22;11231;50.746;4.272;2023-04-28T05:16:58;14.70;99.90
22130;DHT22;11231;50.746;4.272;2023-04-28T05:19:30;14.70;99.90
22130;DHT22;11231;50.746;4.272;2023-04-28T05:21:55;14.70;99.90
22130;DHT22;11231;50.746;4.272;2023-04-28T05:24:22;14.80;99.90
22130;DHT22;11231;50.746;4.272;2023-04-28T05:26:51;14.90;99.90
22130;DHT22;11231;50.746;4.272;2023-04-28T05:29:18;15.00;99.90
22130;DHT22;11231;50.746;4.272;2023-04-28T05:31:44;15.00;99.90
22130;DHT22;11231;50.746;4.272;2023-04-28T05:34:10;15.10;99.90
22130;DHT22;11231;50.746;4.272;2023-04-28T05:36:36;15.10;99.90
22130;DHT22;11231;50.746;4.272;2023-04-28T05:39:03;15.10;99.90
22130;DHT22;11231;50.746;4.272;2023-04-28T05:41:29;15.20;99.90
22130;DHT22;11231;50.746;4.272;2023-04-28T05:43:55;15.30;99.90
22130;DHT22;11231;50.746;4.272;2023-04-28T05:46:21;15.40;99.90
22130;DHT22;11231;50.746;4.272;2023-04-28T05:48:47;15.50;99.90
22130;DHT22;11231;50.746;4.272;2023-04-28T05:51:15;15.50;99.90
22130;DHT22;11231;50.746;4.272;2023-04-28T05:53:41;15.50;99.90
22130;DHT22;11231;50.746;4.272;2023-04-28T05:56:07;15.50;99.90
22130;DHT22;11231;50.746;4.272;2023-04-28T05:58:33;15.60;99.90
22130;DHT22;11231;50.746;4.272;2023-04-28T06:00:59;15.70;99.90
22130;DHT22;11231;50.746;4.272;2023-04-28T06:03:25;15.70;99.90
22130;DHT22;11231;50.746;4.272;2023-04-28T06:05:51;15.60;99.90
22130;DHT22;11231;50.746;4.272;2023-04-28T06:08:18;15.60;99.90
22130;DHT22;11231;50.746;4.272;2023-04-28T06:10:44;15.40;99.90
22130;DHT22;11231;50.746;4.272;2023-04-28T06:13:10;15.40;99.90
22130;DHT22;11231;50.746;4.272;2023-04-28T06:15:36;15.40;99.90
22130;DHT22;11231;50.746;4.272;2023-04-28T06:18:02;15.50;99.90
22130;DHT22;11231;50.746;4.272;2023-04-28T06:20:30;15.50;99.90
22130;DHT22;11231;50.746;4.272;2023-04-28T06:22:56;15.50;99.90
22130;DHT22;11231;50.746;4.272;2023-04-28T06:25:22;15.50;99.90
22130;DHT22;11231;50.746;4.272;2023-04-28T06:27:48;15.50;99.90
22130;DHT22;11231;50.746;4.272;2023-04-28T06:30:17;15.50;99.90
22130;DHT22;11231;50.746;4.272;2023-04-28T06:32:46;15.50;99.90
22130;DHT22;11231;50.746;4.272;2023-04-28T06:35:13;15.60;99.90
22130;DHT22;11231;50.746;4.272;2023-04-28T06:37:38;15.50;99.90
22130;DHT22;11231;50.746;4.272;2023-04-28T06:40:05;15.50;99.90
22130;DHT22;11231;50.746;4.272;2023-04-28T06:42:31;15.50;99.90
22130;DHT22;11231;50.746;4.272;2023-04-28T06:45:04;15.50;99.90
22130;DHT22;11231;50.746;4.272;2023-04-28T06:47:30;15.60;99.90
22130;DHT22;11231;50.746;4.272;2023-04-28T06:49:56;15.70;99.90
22130;DHT22;11231;50.746;4.272;2023-04-28T06:52:22;15.70;99.90
22130;DHT22;11231;50.746;4.272;2023-04-28T06:54:49;15.90;99.90
22130;DHT22;11231;50.746;4.272;2023-04-28T06:57:16;16.00;99.90
22130;DHT22;11231;50.746;4.272;2023-04-28T06:59:41;16.10;99.90
22130;DHT22;11231;50.746;4.272;2023-04-28T07:02:09;16.10;99.90
22130;DHT22;11231;50.746;4.272;2023-04-28T07:04:35;16.20;99.90
22130;DHT22;11231;50.746;4.272;2023-04-28T07:07:01;16.30;99.90
22130;DHT22;11231;50.746;4.272;2023-04-28T07:09:27;16.30;99.90
22130;DHT22;11231;50.746;4.272;2023-04-28T07:11:53;16.50;99.90
22130;DHT22;11231;50.746;4.272;2023-04-28T07:14:19;16.60;99.90
22130;DHT22;11231;50.746;4.272;2023-04-28T07:16:45;16.70;99.90
22130;DHT22;11231;50.746;4.272;2023-04-28T07:19:14;16.70;99.90
22130;DHT22;11231;50.746;4.272;2023-04-28T07:21:39;16.80;99.90
22130;DHT22;11231;50.746;4.272;2023-04-28T07:24:05;16.70;99.90
22130;DHT22;11231;50.746;4.272;2023-04-28T07:26:32;16.70;99.90
22130;DHT22;11231;50.746;4.272;2023-04-28T07:28:58;16.90;99.90
22130;DHT22;11231;50.746;4.272;2023-04-28T07:31:24;17.20;99.90
22130;DHT22;11231;50.746;4.272;2023-04-28T07:33:50;17.50;99.90
22130;DHT22;11231;50.746;4.272;2023-04-28T07:36:16;17.80;99.90
22130;DHT22;11231;50.746;4.272;2023-04-28T07:38:42;17.90;99.90
22130;DHT22;11231;50.746;4.272;2023-04-28T07:41:08;17.90;99.90
22130;DHT22;11231;50.746;4.272;2023-04-28T07:43:33;17.90;99.90
22130;DHT22;11231;50.746;4.272;2023-04-28T07:46:00;19.10;99.90
22130;DHT22;11231;50.746;4.272;2023-04-28T07:48:25;20.20;99.90
22130;DHT22;11231;50.746;4.272;2023-04-28T07:50:52;20.30;99.90
22130;DHT22;11231;50.746;4.272;2023-04-28T07:53:18;20.50;99.90
22130;DHT22;11231;50.746;4.272;2023-04-28T07:55:44;20.80;99.90
22130;DHT22;11231;50.746;4.272;2023-04-28T07:58:11;21.00;99.90
22130;DHT22;11231;50.746;4.272;2023-04-28T08:00:37;21.00;99.90
22130;DHT22;11231;50.746;4.272;2023-04-28T08:03:03;21.10;99.90
22130;DHT22;11231;50.746;4.272;2023-04-28T08:05:28;21.70;99.90
22130;DHT22;11231;50.746;4.272;2023-04-28T08:07:54;21.40;99.90
22130;DHT22;11231;50.746;4.272;2023-04-28T08:10:20;20.60;99.90
22130;DHT22;11231;50.746;4.272;2023-04-28T08:12:46;20.30;99.90
22130;DHT22;11231;50.746;4.272;2023-04-28T08:15:12;20.40;99.90
22130;DHT22;11231;50.746;4.272;2023-04-28T08:17:38;20.40;99.90
22130;DHT22;11231;50.746;4.272;2023-04-28T08:20:04;19.60;99.90
22130;DHT22;11231;50.746;4.272;2023-04-28T08:22:31;19.10;99.90
22130;DHT22;11231;50.746;4.272;2023-04-28T08:24:57;19.00;99.90
22130;DHT22;11231;50.746;4.272;2023-04-28T08:27:23;18.90;99.90
22130;DHT22;11231;50.746;4.272;2023-04-28T08:29:50;18.80;99.90
22130;DHT22;11231;50.746;4.272;2023-04-28T08:32:16;18.60;99.90
22130;DHT22;11231;50.746;4.272;2023-04-28T08:34:42;18.40;99.90
22130;DHT22;11231;50.746;4.272;2023-04-28T08:37:08;18.10;99.90
22130;DHT22;11231;50.746;4.272;2023-04-28T08:39:34;18.10;99.90
22130;DHT22;11231;50.746;4.272;2023-04-28T08:42:03;18.10;99.90
22130;DHT22;11231;50.746;4.272;2023-04-28T08:44:36;18.10;99.90
22130;DHT22;11231;50.746;4.272;2023-04-28T08:47:10;18.10;99.90
22130;DHT22;11231;50.746;4.272;2023-04-28T08:49:40;18.30;99.90
22130;DHT22;11231;50.746;4.272;2023-04-28T08:52:11;18.30;99.90
22130;DHT22;11231;50.746;4.272;2023-04-28T08:54:38;18.00;99.90
22130;DHT22;11231;50.746;4.272;2023-04-28T08:57:09;18.00;99.90
22130;DHT22;11231;50.746;4.272;2023-04-28T08:59:39;17.80;99.90
22130;DHT22;11231;50.746;4.272;2023-04-28T09:02:09;17.60;99.90
22130;DHT22;11231;50.746;4.272;2023-04-28T09:04:35;17.40;99.90
22130;DHT22;11231;50.746;4.272;2023-04-28T09:07:01;17.60;99.90
22130;DHT22;11231;50.746;4.272;2023-04-28T09:09:28;17.50;99.90
22130;DHT22;11231;50.746;4.272;2023-04-28T09:11:59;17.70;99.90
22130;DHT22;11231;50.746;4.272;2023-04-28T09:14:26;17.90;99.90
22130;DHT22;11231;50.746;4.272;2023-04-28T09:16:53;18.20;99.90
22130;DHT22;11231;50.746;4.272;2023-04-28T09:19:19;18.70;99.90
22130;DHT22;11231;50.746;4.272;2023-04-28T09:21:49;19.60;99.90
22130;DHT22;11231;50.746;4.272;2023-04-28T09:26:52;20.80;99.90
22130;DHT22;11231;50.746;4.272;2023-04-28T09:29:17;21.50;99.90
22130;DHT22;11231;50.746;4.272;2023-04-28T09:31:43;22.00;99.90
22130;DHT22;11231;50.746;4.272;2023-04-28T09:34:09;22.00;99.90
22130;DHT22;11231;50.746;4.272;2023-04-28T09:36:36;22.60;99.90
22130;DHT22;11231;50.746;4.272;2023-04-28T09:39:02;22.80;99.90
22130;DHT22;11231;50.746;4.272;2023-04-28T09:41:41;23.10;99.90
22130;DHT22;11231;50.746;4.272;2023-04-28T09:44:15;22.70;99.90
22130;DHT22;11231;50.746;4.272;2023-04-28T09:46:42;22.30;99.90
22130;DHT22;11231;50.746;4.272;2023-04-28T09:49:10;22.50;99.90
22130;DHT22;11231;50.746;4.272;2023-04-28T09:54:22;22.00;99.90
22130;DHT22;11231;50.746;4.272;2023-04-28T09:56:51;21.30;99.90
22130;DHT22;11231;50.746;4.272;2023-04-28T09:59:18;20.90;99.90
22130;DHT22;11231;50.746;4.272;2023-04-28T10:01:44;20.90;99.90
22130;DHT22;11231;50.746;4.272;2023-04-28T10:04:10;20.80;99.90
22130;DHT22;11231;50.746;4.272;2023-04-28T10:06:37;20.80;99.90
22130;DHT22;11231;50.746;4.272;2023-04-28T10:09:04;20.80;99.90
22130;DHT22;11231;50.746;4.272;2023-04-28T10:11:31;20.60;99.90
22130;DHT22;11231;50.746;4.272;2023-04-28T10:13:58;20.50;99.90
22130;DHT22;11231;50.746;4.272;2023-04-28T10:16:27;20.60;99.90
22130;DHT22;11231;50.746;4.272;2023-04-28T10:18:55;22.10;99.90
22130;DHT22;11231;50.746;4.272;2023-04-28T10:21:23;22.10;99.90
22130;DHT22;11231;50.746;4.272;2023-04-28T10:29:25;21.20;99.90
22130;DHT22;11231;50.746;4.272;2023-04-28T10:32:22;21.80;99.90
22130;DHT22;11231;50.746;4.272;2023-04-28T10:34:51;21.60;99.90
22130;DHT22;11231;50.746;4.272;2023-04-28T10:37:17;21.10;99.90
22130;DHT22;11231;50.746;4.272;2023-04-28T10:42:54;20.70;99.90
22130;DHT22;11231;50.746;4.272;2023-04-28T10:48:20;20.10;99.90
22130;DHT22;11231;50.746;4.272;2023-04-28T10:54:06;20.60;99.90
22130;DHT22;11231;50.746;4.272;2023-04-28T10:56:32;20.60;99.90
22130;DHT22;11231;50.746;4.272;2023-04-28T10:58:59;20.70;99.90
22130;DHT22;11231;50.746;4.272;2023-04-28T11:03:59;20.80;99.90
22130;DHT22;11231;50.746;4.272;2023-04-28T11:16:55;20.00;99.90
22130;DHT22;11231;50.746;4.272;2023-04-28T11:19:26;19.30;99.90
22130;DHT22;11231;50.746;4.272;2023-04-28T11:21:55;19.00;99.90
22130;DHT22;11231;50.746;4.272;2023-04-28T11:24:25;19.20;99.90
22130;DHT22;11231;50.746;4.272;2023-04-28T11:26:52;19.20;99.90
22130;DHT22;11231;50.746;4.272;2023-04-28T11:29:32;19.20;99.90
22130;DHT22;11231;50.746;4.272;2023-04-28T11:31:59;19.20;99.90
22130;DHT22;11231;50.746;4.272;2023-04-28T11:34:25;19.00;99.90
22130;DHT22;11231;50.746;4.272;2023-04-28T11:36:51;18.90;99.90
22130;DHT22;11231;50.746;4.272;2023-04-28T11:39:25;19.00;99.90
22130;DHT22;11231;50.746;4.272;2023-04-28T11:41:53;18.90;99.90
22130;DHT22;11231;50.746;4.272;2023-04-28T11:44:21;18.90;99.90
22130;DHT22;11231;50.746;4.272;2023-04-28T11:46:54;19.10;99.90
22130;DHT22;11231;50.746;4.272;2023-04-28T11:49:22;19.40;99.90
22130;DHT22;11231;50.746;4.272;2023-04-28T11:51:54;19.30;99.90
22130;DHT22;11231;50.746;4.272;2023-04-28T11:54:24;19.60;99.90
22130;DHT22;11231;50.746;4.272;2023-04-28T11:56:51;19.70;99.90
22130;DHT22;11231;50.746;4.272;2023-04-28T11:59:17;20.00;99.90
22130;DHT22;11231;50.746;4.272;2023-04-28T12:01:56;20.50;99.90
22130;DHT22;11231;50.746;4.272;2023-04-28T12:04:33;20.80;99.90
22130;DHT22;11231;50.746;4.272;2023-04-28T12:07:04;20.60;99.90
22130;DHT22;11231;50.746;4.272;2023-04-28T12:09:33;20.20;99.90
22130;DHT22;11231;50.746;4.272;2023-04-28T12:12:04;20.10;99.90
22130;DHT22;11231;50.746;4.272;2023-04-28T12:14:32;19.70;99.90
22130;DHT22;11231;50.746;4.272;2023-04-28T12:20:01;19.30;99.90
22130;DHT22;11231;50.746;4.272;2023-04-28T12:22:28;18.80;99.90
22130;DHT22;11231;50.746;4.272;2023-04-28T12:25:08;18.60;99.90
22130;DHT22;11231;50.746;4.272;2023-04-28T12:27:38;18.20;99.90
22130;DHT22;11231;50.746;4.272;2023-04-28T12:32:46;18.40;99.90
22130;DHT22;11231;50.746;4.272;2023-04-28T12:35:12;18.60;99.90
22130;DHT22;11231;50.746;4.272;2023-04-28T12:37:39;18.70;99.90
22130;DHT22;11231;50.746;4.272;2023-04-28T12:40:07;18.80;99.90
22130;DHT22;11231;50.746;4.272;2023-04-28T12:42:33;18.70;99.90
22130;DHT22;11231;50.746;4.272;2023-04-28T12:44:59;19.00;99.90
22130;DHT22;11231;50.746;4.272;2023-04-28T12:47:25;19.20;99.90
22130;DHT22;11231;50.746;4.272;2023-04-28T12:49:51;18.90;99.90
22130;DHT22;11231;50.746;4.272;2023-04-28T12:52:18;18.80;99.90
22130;DHT22;11231;50.746;4.272;2023-04-28T12:54:44;18.30;99.90
22130;DHT22;11231;50.746;4.272;2023-04-28T12:57:17;18.20;99.90
22130;DHT22;11231;50.746;4.272;2023-04-28T12:59:43;18.10;99.90
22130;DHT22;11231;50.746;4.272;2023-04-28T13:02:10;17.90;99.90
22130;DHT22;11231;50.746;4.272;2023-04-28T13:04:35;17.90;99.90
22130;DHT22;11231;50.746;4.272;2023-04-28T13:07:02;17.90;99.90
22130;DHT22;11231;50.746;4.272;2023-04-28T13:09:28;17.80;99.90
22130;DHT22;11231;50.746;4.272;2023-04-28T13:11:54;17.90;99.90
22130;DHT22;11231;50.746;4.272;2023-04-28T13:14:21;17.90;99.90
22130;DHT22;11231;50.746;4.272;2023-04-28T13:16:47;18.20;99.90
22130;DHT22;11231;50.746;4.272;2023-04-28T13:19:12;17.90;99.90
22130;DHT22;11231;50.746;4.272;2023-04-28T13:21:39;18.00;99.90
22130;DHT22;11231;50.746;4.272;2023-04-28T13:24:06;18.00;99.90
22130;DHT22;11231;50.746;4.272;2023-04-28T13:26:33;18.00;99.90
22130;DHT22;11231;50.746;4.272;2023-04-28T13:28:59;18.20;99.90
22130;DHT22;11231;50.746;4.272;2023-04-28T13:31:27;18.20;99.90
22130;DHT22;11231;50.746;4.272;2023-04-28T13:33:54;18.00;99.90
22130;DHT22;11231;50.746;4.272;2023-04-28T13:36:21;18.20;99.90
22130;DHT22;11231;50.746;4.272;2023-04-28T13:38:48;18.00;99.90
22130;DHT22;11231;50.746;4.272;2023-04-28T13:41:18;17.70;99.90
22130;DHT22;11231;50.746;4.272;2023-04-28T13:43:44;17.70;99.90
22130;DHT22;11231;50.746;4.272;2023-04-28T13:46:10;17.70;99.90
22130;DHT22;11231;50.746;4.272;2023-04-28T13:48:37;17.50;99.90
22130;DHT22;11231;50.746;4.272;2023-04-28T13:51:04;17.50;99.90
22130;DHT22;11231;50.746;4.272;2023-04-28T13:53:33;17.60;99.90
22130;DHT22;11231;50.746;4.272;2023-04-28T13:55:59;17.60;99.90
22130;DHT22;11231;50.746;4.272;2023-04-28T13:58:27;17.80;99.90
22130;DHT22;11231;50.746;4.272;2023-04-28T14:00:54;17.80;99.90
22130;DHT22;11231;50.746;4.272;2023-04-28T14:03:23;17.80;99.90
22130;DHT22;11231;50.746;4.272;2023-04-28T14:05:54;17.70;99.90
22130;DHT22;11231;50.746;4.272;2023-04-28T14:08:21;17.90;99.90
22130;DHT22;11231;50.746;4.272;2023-04-28T14:10:48;18.00;99.90
22130;DHT22;11231;50.746;4.272;2023-04-28T14:13:14;17.60;99.90
22130;DHT22;11231;50.746;4.272;2023-04-28T14:15:41;17.50;99.90
22130;DHT22;11231;50.746;4.272;2023-04-28T14:18:07;17.60;99.90
22130;DHT22;11231;50.746;4.272;2023-04-28T14:20:34;17.60;99.90
22130;DHT22;11231;50.746;4.272;2023-04-28T14:23:00;17.70;99.90
22130;DHT22;11231;50.746;4.272;2023-04-28T14:25:26;17.90;99.90
22130;DHT22;11231;50.746;4.272;2023-04-28T14:27:52;18.10;99.90
22130;DHT22;11231;50.746;4.272;2023-04-28T14:30:18;18.40;99.90
22130;DHT22;11231;50.746;4.272;2023-04-28T14:32:45;18.70;99.90
22130;DHT22;11231;50.746;4.272;2023-04-28T14:35:12;19.00;99.90
22130;DHT22;11231;50.746;4.272;2023-04-28T14:37:42;19.10;99.90
22130;DHT22;11231;50.746;4.272;2023-04-28T14:40:08;18.90;99.90
22130;DHT22;11231;50.746;4.272;2023-04-28T14:42:35;19.00;99.90
22130;DHT22;11231;50.746;4.272;2023-04-28T14:45:06;18.80;99.90
22130;DHT22;11231;50.746;4.272;2023-04-28T14:47:32;18.50;99.90
22130;DHT22;11231;50.746;4.272;2023-04-28T14:49:58;18.50;99.90
22130;DHT22;11231;50.746;4.272;2023-04-28T14:52:24;18.60;99.90
22130;DHT22;11231;50.746;4.272;2023-04-28T14:54:55;18.70;99.90
22130;DHT22;11231;50.746;4.272;2023-04-28T14:57:21;18.90;99.90
22130;DHT22;11231;50.746;4.272;2023-04-28T14:59:47;19.10;99.90
22130;DHT22;11231;50.746;4.272;2023-04-28T15:02:13;19.20;99.90
22130;DHT22;11231;50.746;4.272;2023-04-28T15:04:39;19.30;99.90
22130;DHT22;11231;50.746;4.272;2023-04-28T15:07:06;19.10;99.90
22130;DHT22;11231;50.746;4.272;2023-04-28T15:09:34;19.20;99.90
22130;DHT22;11231;50.746;4.272;2023-04-28T15:12:01;19.50;99.90
22130;DHT22;11231;50.746;4.272;2023-04-28T15:14:28;19.40;99.90
22130;DHT22;11231;50.746;4.272;2023-04-28T15:16:54;19.30;99.90
22130;DHT22;11231;50.746;4.272;2023-04-28T15:19:20;19.30;99.90
22130;DHT22;11231;50.746;4.272;2023-04-28T15:21:48;19.10;99.90
22130;DHT22;11231;50.746;4.272;2023-04-28T15:24:17;19.00;99.90
22130;DHT22;11231;50.746;4.272;2023-04-28T15:26:43;18.70;99.90
22130;DHT22;11231;50.746;4.272;2023-04-28T15:29:09;18.40;99.90
22130;DHT22;11231;50.746;4.272;2023-04-28T15:31:36;18.50;99.90
22130;DHT22;11231;50.746;4.272;2023-04-28T15:34:02;18.60;99.90
22130;DHT22;11231;50.746;4.272;2023-04-28T15:36:28;18.80;99.90
22130;DHT22;11231;50.746;4.272;2023-04-28T15:38:54;19.20;99.90
22130;DHT22;11231;50.746;4.272;2023-04-28T15:41:20;19.10;99.90
22130;DHT22;11231;50.746;4.272;2023-04-28T15:43:46;18.40;99.90
22130;DHT22;11231;50.746;4.272;2023-04-28T15:46:12;17.80;99.90
22130;DHT22;11231;50.746;4.272;2023-04-28T15:48:41;17.80;99.90
22130;DHT22;11231;50.746;4.272;2023-04-28T15:51:09;17.60;99.90
22130;DHT22;11231;50.746;4.272;2023-04-28T15:53:35;17.60;99.90
22130;DHT22;11231;50.746;4.272;2023-04-28T15:56:02;17.70;99.90
22130;DHT22;11231;50.746;4.272;2023-04-28T15:58:29;17.70;99.90
22130;DHT22;11231;50.746;4.272;2023-04-28T16:00:55;17.80;99.90
22130;DHT22;11231;50.746;4.272;2023-04-28T16:03:26;17.70;99.90
22130;DHT22;11231;50.746;4.272;2023-04-28T16:05:53;17.50;99.90
22130;DHT22;11231;50.746;4.272;2023-04-28T16:08:20;17.50;99.90
22130;DHT22;11231;50.746;4.272;2023-04-28T16:10:49;17.30;99.90
22130;DHT22;11231;50.746;4.272;2023-04-28T16:13:15;17.20;99.90